sensor_id;sensor_type;location;lat;lon;timestamp;temperature;humidity
5457;DHT22;2751;49.802;9.944;2022-08-02T00:02:09;21.10;99.90
5457;DHT22;2751;49.802;9.944;2022-08-02T00:04:36;21.10;99.90
5457;DHT22;2751;49.802;9.944;2022-08-02T00:07:05;21.10;99.90
5457;DHT22;2751;49.802;9.944;2022-08-02T00:09:32;21.20;99.90
5457;DHT22;2751;49.802;9.944;2022-08-02T00:12:03;21.10;99.90
5457;DHT22;2751;49.802;9.944;2022-08-02T00:14:30;21.20;99.90
5457;DHT22;2751;49.802;9.944;2022-08-02T00:16:57;21.10;99.90
5457;DHT22;2751;49.802;9.944;2022-08-02T00:19:24;21.10;99.90
5457;DHT22;2751;49.802;9.944;2022-08-02T00:21:51;21.10;99.90
5457;DHT22;2751;49.802;9.944;2022-08-02T00:24:19;21.10;99.90
5457;DHT22;2751;49.802;9.944;2022-08-02T00:26:46;21.10;99.90
5457;DHT22;2751;49.802;9.944;2022-08-02T00:29:13;21.00;99.90
5457;DHT22;2751;49.802;9.944;2022-08-02T00:31:40;21.00;99.90
5457;DHT22;2751;49.802;9.944;2022-08-02T00:34:07;21.00;99.90
5457;DHT22;2751;49.802;9.944;2022-08-02T00:36:34;20.90;99.90
5457;DHT22;2751;49.802;9.944;2022-08-02T00:39:01;20.90;99.90
5457;DHT22;2751;49.802;9.944;2022-08-02T00:41:30;20.90;99.90
5457;DHT22;2751;49.802;9.944;2022-08-02T00:43:57;20.90;99.90
5457;DHT22;2751;49.802;9.944;2022-08-02T00:46:23;20.80;99.90
5457;DHT22;2751;49.802;9.944;2022-08-02T00:48:50;20.70;99.90
5457;DHT22;2751;49.802;9.944;2022-08-02T00:51:20;20.70;99.90
5457;DHT22;2751;49.802;9.944;2022-08-02T00:53:47;20.70;99.90
5457;DHT22;2751;49.802;9.944;2022-08-02T00:56:14;20.70;99.90
5457;DHT22;2751;49.802;9.944;2022-08-02T00:58:42;20.60;99.90
5457;DHT22;2751;49.802;9.944;2022-08-02T01:01:09;20.60;99.90
5457;DHT22;2751;49.802;9.944;2022-08-02T01:03:36;20.60;99.90
5457;DHT22;2751;49.802;9.944;2022-08-02T01:06:03;20.60;99.90
5457;DHT22;2751;49.802;9.944;2022-08-02T01:08:30;20.60;99.90
5457;DHT22;2751;49.802;9.944;2022-08-02T01:10:57;20.60;99.90
5457;DHT22;2751;49.802;9.944;2022-08-02T01:13:25;20.60;99.90
5457;DHT22;2751;49.802;9.944;2022-08-02T01:16:01;20.60;99.90
5457;DHT22;2751;49.802;9.944;2022-08-02T01:18:34;20.60;99.90
5457;DHT22;2751;49.802;9.944;2022-08-02T01:21:22;20.50;99.90
5457;DHT22;2751;49.802;9.944;2022-08-02T01:24:03;20.40;99.90
5457;DHT22;2751;49.802;9.944;2022-08-02T01:26:41;20.40;99.90
5457;DHT22;2751;49.802;9.944;2022-08-02T01:29:16;20.40;99.90
5457;DHT22;2751;49.802;9.944;2022-08-02T01:31:48;20.40;99.90
5457;DHT22;2751;49.802;9.944;2022-08-02T01:34:18;20.20;99.90
5457;DHT22;2751;49.802;9.944;2022-08-02T01:36:53;20.20;99.90
5457;DHT22;2751;49.802;9.944;2022-08-02T01:39:25;20.10;99.90
5457;DHT22;2751;49.802;9.944;2022-08-02T01:41:53;20.10;99.90
5457;DHT22;2751;49.802;9.944;2022-08-02T01:44:24;20.10;99.90
5457;DHT22;2751;49.802;9.944;2022-08-02T01:46:59;20.00;99.90
5457;DHT22;2751;49.802;9.944;2022-08-02T01:49:29;20.00;99.90
5457;DHT22;2751;49.802;9.944;2022-08-02T01:51:56;20.00;99.90
5457;DHT22;2751;49.802;9.944;2022-08-02T01:54:43;20.00;99.90
5457;DHT22;2751;49.802;9.944;2022-08-02T01:57:13;19.90;99.90
5457;DHT22;2751;49.802;9.944;2022-08-02T01:59:43;19.90;99.90
5457;DHT22;2751;49.802;9.944;2022-08-02T02:02:12;19.90;99.90
5457;DHT22;2751;49.802;9.944;2022-08-02T02:04:41;19.90;99.90
5457;DHT22;2751;49.802;9.944;2022-08-02T02:07:10;19.80;99.90
5457;DHT22;2751;49.802;9.944;2022-08-02T02:09:40;19.90;99.90
5457;DHT22;2751;49.802;9.944;2022-08-02T02:12:10;19.90;99.90
5457;DHT22;2751;49.802;9.944;2022-08-02T02:14:38;19.90;99.90
5457;DHT22;2751;49.802;9.944;2022-08-02T02:17:08;19.90;99.90
5457;DHT22;2751;49.802;9.944;2022-08-02T02:19:36;19.90;99.90
5457;DHT22;2751;49.802;9.944;2022-08-02T02:22:05;19.90;99.90
5457;DHT22;2751;49.802;9.944;2022-08-02T02:24:32;19.90;99.90
5457;DHT22;2751;49.802;9.944;2022-08-02T02:27:00;19.90;99.90
5457;DHT22;2751;49.802;9.944;2022-08-02T02:29:30;19.90;99.90
5457;DHT22;2751;49.802;9.944;2022-08-02T02:31:59;20.00;99.90
5457;DHT22;2751;49.802;9.944;2022-08-02T02:34:31;20.00;99.90
5457;DHT22;2751;49.802;9.944;2022-08-02T02:37:01;20.00;99.90
5457;DHT22;2751;49.802;9.944;2022-08-02T02:39:30;20.00;99.90
5457;DHT22;2751;49.802;9.944;2022-08-02T02:42:02;20.00;99.90
5457;DHT22;2751;49.802;9.944;2022-08-02T02:44:30;20.00;99.90
5457;DHT22;2751;49.802;9.944;2022-08-02T02:46:58;20.00;99.90
5457;DHT22;2751;49.802;9.944;2022-08-02T02:49:31;19.90;99.90
5457;DHT22;2751;49.802;9.944;2022-08-02T02:51:59;19.90;99.90
5457;DHT22;2751;49.802;9.944;2022-08-02T02:54:27;20.00;99.90
5457;DHT22;2751;49.802;9.944;2022-08-02T02:56:57;20.00;99.90
5457;DHT22;2751;49.802;9.944;2022-08-02T02:59:24;20.10;99.90
5457;DHT22;2751;49.802;9.944;2022-08-02T03:01:52;20.10;99.90
5457;DHT22;2751;49.802;9.944;2022-08-02T03:04:20;20.10;99.90
5457;DHT22;2751;49.802;9.944;2022-08-02T03:06:48;20.00;99.90
5457;DHT22;2751;49.802;9.944;2022-08-02T03:09:15;20.00;99.90
5457;DHT22;2751;49.802;9.944;2022-08-02T03:11:42;20.10;99.90
5457;DHT22;2751;49.802;9.944;2022-08-02T03:14:11;20.10;99.90
5457;DHT22;2751;49.802;9.944;2022-08-02T03:16:42;20.10;99.90
5457;DHT22;2751;49.802;9.944;2022-08-02T03:19:10;20.10;99.90
5457;DHT22;2751;49.802;9.944;2022-08-02T03:21:37;20.10;99.90
5457;DHT22;2751;49.802;9.944;2022-08-02T03:24:06;20.10;99.90
5457;DHT22;2751;49.802;9.944;2022-08-02T03:26:33;20.20;99.90
5457;DHT22;2751;49.802;9.944;2022-08-02T03:29:00;20.20;99.90
5457;DHT22;2751;49.802;9.944;2022-08-02T03:31:27;20.20;99.90
5457;DHT22;2751;49.802;9.944;2022-08-02T03:33:55;20.10;99.90
5457;DHT22;2751;49.802;9.944;2022-08-02T03:36:25;20.10;99.90
5457;DHT22;2751;49.802;9.944;2022-08-02T03:38:54;20.10;99.90
5457;DHT22;2751;49.802;9.944;2022-08-02T03:41:23;20.10;99.90
5457;DHT22;2751;49.802;9.944;2022-08-02T03:43:50;20.00;99.90
5457;DHT22;2751;49.802;9.944;2022-08-02T03:46:21;20.00;99.90
5457;DHT22;2751;49.802;9.944;2022-08-02T03:48:50;19.90;99.90
5457;DHT22;2751;49.802;9.944;2022-08-02T03:51:18;19.80;99.90
5457;DHT22;2751;49.802;9.944;2022-08-02T03:53:45;19.80;99.90
5457;DHT22;2751;49.802;9.944;2022-08-02T03:56:13;19.70;99.90
5457;DHT22;2751;49.802;9.944;2022-08-02T03:58:42;19.70;99.90
5457;DHT22;2751;49.802;9.944;2022-08-02T04:01:09;19.60;99.90
5457;DHT22;2751;49.802;9.944;2022-08-02T04:03:36;19.60;99.90
5457;DHT22;2751;49.802;9.944;2022-08-02T04:06:03;19.60;99.90
5457;DHT22;2751;49.802;9.944;2022-08-02T04:08:30;19.50;99.90
5457;DHT22;2751;49.802;9.944;2022-08-02T04:10:57;19.60;99.90
5457;DHT22;2751;49.802;9.944;2022-08-02T04:13:43;19.50;99.90
5457;DHT22;2751;49.802;9.944;2022-08-02T04:16:15;19.50;99.90
5457;DHT22;2751;49.802;9.944;2022-08-02T04:18:49;19.50;99.90
5457;DHT22;2751;49.802;9.944;2022-08-02T04:21:18;19.40;99.90
5457;DHT22;2751;49.802;9.944;2022-08-02T04:23:47;19.40;99.90
5457;DHT22;2751;49.802;9.944;2022-08-02T04:26:16;19.40;99.90
5457;DHT22;2751;49.802;9.944;2022-08-02T04:28:45;19.40;99.90
5457;DHT22;2751;49.802;9.944;2022-08-02T04:31:14;19.40;99.90
5457;DHT22;2751;49.802;9.944;2022-08-02T04:33:43;19.40;99.90
5457;DHT22;2751;49.802;9.944;2022-08-02T04:36:10;19.30;99.90
5457;DHT22;2751;49.802;9.944;2022-08-02T04:38:39;19.30;99.90
5457;DHT22;2751;49.802;9.944;2022-08-02T04:41:07;19.30;99.90
5457;DHT22;2751;49.802;9.944;2022-08-02T04:43:34;19.40;99.90
5457;DHT22;2751;49.802;9.944;2022-08-02T04:46:02;19.40;99.90
5457;DHT22;2751;49.802;9.944;2022-08-02T04:48:30;19.40;99.90
5457;DHT22;2751;49.802;9.944;2022-08-02T04:50:57;19.50;99.90
5457;DHT22;2751;49.802;9.944;2022-08-02T04:53:24;19.50;99.90
5457;DHT22;2751;49.802;9.944;2022-08-02T04:55:51;19.50;99.90
5457;DHT22;2751;49.802;9.944;2022-08-02T04:58:18;19.50;99.90
5457;DHT22;2751;49.802;9.944;2022-08-02T05:00:45;19.60;99.90
5457;DHT22;2751;49.802;9.944;2022-08-02T05:03:13;19.60;99.90
5457;DHT22;2751;49.802;9.944;2022-08-02T05:05:40;19.60;99.90
5457;DHT22;2751;49.802;9.944;2022-08-02T05:08:07;19.60;99.90
5457;DHT22;2751;49.802;9.944;2022-08-02T05:10:34;19.70;99.90
5457;DHT22;2751;49.802;9.944;2022-08-02T05:13:03;19.60;99.90
5457;DHT22;2751;49.802;9.944;2022-08-02T05:15:31;19.70;99.90
5457;DHT22;2751;49.802;9.944;2022-08-02T05:17:58;19.70;99.90
5457;DHT22;2751;49.802;9.944;2022-08-02T05:20:26;19.70;99.90
5457;DHT22;2751;49.802;9.944;2022-08-02T05:22:53;19.90;99.90
5457;DHT22;2751;49.802;9.944;2022-08-02T05:25:20;20.00;99.90
5457;DHT22;2751;49.802;9.944;2022-08-02T05:27:47;20.10;99.90
5457;DHT22;2751;49.802;9.944;2022-08-02T05:30:14;20.20;99.90
5457;DHT22;2751;49.802;9.944;2022-08-02T05:32:45;20.30;99.90
5457;DHT22;2751;49.802;9.944;2022-08-02T05:35:15;20.40;99.90
5457;DHT22;2751;49.802;9.944;2022-08-02T05:37:44;20.50;99.90
5457;DHT22;2751;49.802;9.944;2022-08-02T05:40:12;20.50;99.90
5457;DHT22;2751;49.802;9.944;2022-08-02T05:42:39;20.50;99.90
5457;DHT22;2751;49.802;9.944;2022-08-02T05:45:07;20.50;99.90
5457;DHT22;2751;49.802;9.944;2022-08-02T05:47:34;20.60;99.90
5457;DHT22;2751;49.802;9.944;2022-08-02T05:50:02;20.70;99.90
5457;DHT22;2751;49.802;9.944;2022-08-02T05:52:40;20.70;99.90
5457;DHT22;2751;49.802;9.944;2022-08-02T05:55:11;20.70;99.90
5457;DHT22;2751;49.802;9.944;2022-08-02T05:57:48;20.70;99.90
5457;DHT22;2751;49.802;9.944;2022-08-02T06:00:16;20.90;99.90
5457;DHT22;2751;49.802;9.944;2022-08-02T06:03:05;21.10;99.90
5457;DHT22;2751;49.802;9.944;2022-08-02T06:05:46;21.20;99.90
5457;DHT22;2751;49.802;9.944;2022-08-02T06:08:15;21.40;99.90
5457;DHT22;2751;49.802;9.944;2022-08-02T06:10:44;21.50;99.90
5457;DHT22;2751;49.802;9.944;2022-08-02T06:13:14;21.70;99.90
5457;DHT22;2751;49.802;9.944;2022-08-02T06:15:42;21.80;99.90
5457;DHT22;2751;49.802;9.944;2022-08-02T06:18:09;22.00;99.90
5457;DHT22;2751;49.802;9.944;2022-08-02T06:20:36;22.10;99.90
5457;DHT22;2751;49.802;9.944;2022-08-02T06:23:04;22.20;99.90
5457;DHT22;2751;49.802;9.944;2022-08-02T06:25:32;22.30;99.90
5457;DHT22;2751;49.802;9.944;2022-08-02T06:28:03;22.40;99.90
5457;DHT22;2751;49.802;9.944;2022-08-02T06:30:31;22.50;99.90
5457;DHT22;2751;49.802;9.944;2022-08-02T06:32:59;22.60;99.90
5457;DHT22;2751;49.802;9.944;2022-08-02T06:35:32;22.70;99.90
5457;DHT22;2751;49.802;9.944;2022-08-02T06:38:00;22.80;99.90
5457;DHT22;2751;49.802;9.944;2022-08-02T06:40:31;22.90;99.90
5457;DHT22;2751;49.802;9.944;2022-08-02T06:43:08;23.10;99.90
5457;DHT22;2751;49.802;9.944;2022-08-02T06:45:37;23.20;99.90
5457;DHT22;2751;49.802;9.944;2022-08-02T06:48:04;23.20;99.90
5457;DHT22;2751;49.802;9.944;2022-08-02T06:50:32;23.10;99.90
5457;DHT22;2751;49.802;9.944;2022-08-02T06:52:59;23.20;99.90
5457;DHT22;2751;49.802;9.944;2022-08-02T06:55:26;23.20;99.90
5457;DHT22;2751;49.802;9.944;2022-08-02T06:57:54;23.30;99.90
5457;DHT22;2751;49.802;9.944;2022-08-02T07:00:23;23.40;99.90
5457;DHT22;2751;49.802;9.944;2022-08-02T07:02:50;23.40;99.90
5457;DHT22;2751;49.802;9.944;2022-08-02T07:05:17;23.50;99.90
5457;DHT22;2751;49.802;9.944;2022-08-02T07:07:44;23.70;99.90
5457;DHT22;2751;49.802;9.944;2022-08-02T07:10:12;23.80;99.90
5457;DHT22;2751;49.802;9.944;2022-08-02T07:12:40;23.80;99.90
5457;DHT22;2751;49.802;9.944;2022-08-02T07:15:07;23.90;99.90
5457;DHT22;2751;49.802;9.944;2022-08-02T07:17:38;23.80;99.90
5457;DHT22;2751;49.802;9.944;2022-08-02T07:20:06;23.70;99.90
5457;DHT22;2751;49.802;9.944;2022-08-02T07:22:34;23.70;99.90
5457;DHT22;2751;49.802;9.944;2022-08-02T07:25:02;23.80;99.90
5457;DHT22;2751;49.802;9.944;2022-08-02T07:27:29;23.90;99.90
5457;DHT22;2751;49.802;9.944;2022-08-02T07:29:56;23.70;99.90
5457;DHT22;2751;49.802;9.944;2022-08-02T07:32:27;23.80;99.90
5457;DHT22;2751;49.802;9.944;2022-08-02T07:34:56;24.00;99.90
5457;DHT22;2751;49.802;9.944;2022-08-02T07:37:24;24.10;99.90
5457;DHT22;2751;49.802;9.944;2022-08-02T07:39:51;24.00;99.90
5457;DHT22;2751;49.802;9.944;2022-08-02T07:42:18;24.00;99.90
5457;DHT22;2751;49.802;9.944;2022-08-02T07:44:45;24.00;99.90
5457;DHT22;2751;49.802;9.944;2022-08-02T07:47:12;24.00;99.90
5457;DHT22;2751;49.802;9.944;2022-08-02T07:49:39;24.00;99.90
5457;DHT22;2751;49.802;9.944;2022-08-02T07:52:07;24.10;99.90
5457;DHT22;2751;49.802;9.944;2022-08-02T07:54:34;24.10;99.90
5457;DHT22;2751;49.802;9.944;2022-08-02T07:57:01;24.20;99.90
5457;DHT22;2751;49.802;9.944;2022-08-02T07:59:28;24.30;99.90
5457;DHT22;2751;49.802;9.944;2022-08-02T08:01:56;24.50;99.90
5457;DHT22;2751;49.802;9.944;2022-08-02T08:04:23;24.70;99.90
5457;DHT22;2751;49.802;9.944;2022-08-02T08:06:50;24.80;99.90
5457;DHT22;2751;49.802;9.944;2022-08-02T08:09:20;24.90;99.90
5457;DHT22;2751;49.802;9.944;2022-08-02T08:11:47;25.00;99.90
5457;DHT22;2751;49.802;9.944;2022-08-02T08:14:14;25.10;99.90
5457;DHT22;2751;49.802;9.944;2022-08-02T08:16:41;25.10;99.90
5457;DHT22;2751;49.802;9.944;2022-08-02T08:19:08;25.10;99.90
5457;DHT22;2751;49.802;9.944;2022-08-02T08:21:35;25.60;99.90
5457;DHT22;2751;49.802;9.944;2022-08-02T08:24:02;26.20;99.90
5457;DHT22;2751;49.802;9.944;2022-08-02T08:26:31;26.70;99.90
5457;DHT22;2751;49.802;9.944;2022-08-02T08:28:58;27.20;99.90
5457;DHT22;2751;49.802;9.944;2022-08-02T08:31:26;27.30;99.90
5457;DHT22;2751;49.802;9.944;2022-08-02T08:33:53;27.90;99.10
5457;DHT22;2751;49.802;9.944;2022-08-02T08:36:21;28.60;97.10
5457;DHT22;2751;49.802;9.944;2022-08-02T08:38:49;28.80;95.30
5457;DHT22;2751;49.802;9.944;2022-08-02T08:41:16;29.30;93.40
5457;DHT22;2751;49.802;9.944;2022-08-02T08:43:45;29.40;92.20
5457;DHT22;2751;49.802;9.944;2022-08-02T08:46:20;30.10;90.50
5457;DHT22;2751;49.802;9.944;2022-08-02T08:48:52;30.50;88.60
5457;DHT22;2751;49.802;9.944;2022-08-02T08:51:22;31.20;83.60
5457;DHT22;2751;49.802;9.944;2022-08-02T08:53:53;32.00;79.60
5457;DHT22;2751;49.802;9.944;2022-08-02T08:56:22;32.40;76.70
5457;DHT22;2751;49.802;9.944;2022-08-02T08:58:50;32.90;73.80
5457;DHT22;2751;49.802;9.944;2022-08-02T09:01:17;33.60;71.20
5457;DHT22;2751;49.802;9.944;2022-08-02T09:03:46;34.20;66.20
5457;DHT22;2751;49.802;9.944;2022-08-02T09:06:12;34.20;59.60
5457;DHT22;2751;49.802;9.944;2022-08-02T09:08:39;33.60;60.30
5457;DHT22;2751;49.802;9.944;2022-08-02T09:11:12;33.60;59.60
5457;DHT22;2751;49.802;9.944;2022-08-02T09:13:50;34.40;58.40
5457;DHT22;2751;49.802;9.944;2022-08-02T09:16:30;35.10;56.60
5457;DHT22;2751;49.802;9.944;2022-08-02T09:18:57;34.80;54.70
5457;DHT22;2751;49.802;9.944;2022-08-02T09:21:33;34.70;54.70
5457;DHT22;2751;49.802;9.944;2022-08-02T09:24:01;34.30;54.70
5457;DHT22;2751;49.802;9.944;2022-08-02T09:26:27;34.00;55.40
5457;DHT22;2751;49.802;9.944;2022-08-02T09:29:01;34.30;55.30
5457;DHT22;2751;49.802;9.944;2022-08-02T09:31:28;33.80;55.00
5457;DHT22;2751;49.802;9.944;2022-08-02T09:33:57;34.30;54.10
5457;DHT22;2751;49.802;9.944;2022-08-02T09:36:25;34.10;53.90
5457;DHT22;2751;49.802;9.944;2022-08-02T09:38:55;34.30;53.50
5457;DHT22;2751;49.802;9.944;2022-08-02T09:41:24;34.70;52.00
5457;DHT22;2751;49.802;9.944;2022-08-02T09:43:54;34.00;52.50
5457;DHT22;2751;49.802;9.944;2022-08-02T09:46:25;34.10;52.80
5457;DHT22;2751;49.802;9.944;2022-08-02T09:48:53;34.40;51.60
5457;DHT22;2751;49.802;9.944;2022-08-02T09:51:22;35.10;50.90
5457;DHT22;2751;49.802;9.944;2022-08-02T09:53:53;35.50;49.60
5457;DHT22;2751;49.802;9.944;2022-08-02T09:56:23;35.00;49.50
5457;DHT22;2751;49.802;9.944;2022-08-02T09:59:15;34.80;49.70
5457;DHT22;2751;49.802;9.944;2022-08-02T10:02:08;36.00;48.40
5457;DHT22;2751;49.802;9.944;2022-08-02T10:04:35;36.50;47.30
5457;DHT22;2751;49.802;9.944;2022-08-02T10:07:05;37.40;46.40
5457;DHT22;2751;49.802;9.944;2022-08-02T10:09:53;38.40;45.00
5457;DHT22;2751;49.802;9.944;2022-08-02T10:12:24;38.70;42.70
5457;DHT22;2751;49.802;9.944;2022-08-02T10:14:51;39.00;41.90
5457;DHT22;2751;49.802;9.944;2022-08-02T10:17:20;38.90;41.20
5457;DHT22;2751;49.802;9.944;2022-08-02T10:19:47;39.40;40.80
5457;DHT22;2751;49.802;9.944;2022-08-02T10:22:14;39.40;40.10
5457;DHT22;2751;49.802;9.944;2022-08-02T10:24:42;39.70;39.40
5457;DHT22;2751;49.802;9.944;2022-08-02T10:27:13;38.60;40.00
5457;DHT22;2751;49.802;9.944;2022-08-02T10:29:42;37.90;41.00
5457;DHT22;2751;49.802;9.944;2022-08-02T10:32:11;39.30;39.60
5457;DHT22;2751;49.802;9.944;2022-08-02T10:34:46;40.10;38.00
5457;DHT22;2751;49.802;9.944;2022-08-02T10:37:15;40.90;36.50
5457;DHT22;2751;49.802;9.944;2022-08-02T10:39:44;41.30;34.70
5457;DHT22;2751;49.802;9.944;2022-08-02T10:42:12;40.40;35.40
5457;DHT22;2751;49.802;9.944;2022-08-02T10:45:08;40.90;35.00
5457;DHT22;2751;49.802;9.944;2022-08-02T10:47:35;40.20;33.20
5457;DHT22;2751;49.802;9.944;2022-08-02T10:50:04;39.00;34.60
5457;DHT22;2751;49.802;9.944;2022-08-02T10:52:31;38.40;35.20
5457;DHT22;2751;49.802;9.944;2022-08-02T10:55:00;37.80;36.10
5457;DHT22;2751;49.802;9.944;2022-08-02T10:57:28;38.20;35.30
5457;DHT22;2751;49.802;9.944;2022-08-02T10:59:57;38.10;35.70
5457;DHT22;2751;49.802;9.944;2022-08-02T11:02:35;39.00;34.70
5457;DHT22;2751;49.802;9.944;2022-08-02T11:05:10;39.90;34.30
5457;DHT22;2751;49.802;9.944;2022-08-02T11:07:38;41.10;33.30
5457;DHT22;2751;49.802;9.944;2022-08-02T11:10:27;40.20;1.00
5457;DHT22;2751;49.802;9.944;2022-08-02T11:12:59;41.30;1.00
5457;DHT22;2751;49.802;9.944;2022-08-02T11:15:27;41.90;1.00
5457;DHT22;2751;49.802;9.944;2022-08-02T11:17:56;42.60;1.00
5457;DHT22;2751;49.802;9.944;2022-08-02T11:20:25;42.40;1.00
5457;DHT22;2751;49.802;9.944;2022-08-02T11:22:54;43.80;1.00
5457;DHT22;2751;49.802;9.944;2022-08-02T11:25:32;41.40;1.00
5457;DHT22;2751;49.802;9.944;2022-08-02T11:28:08;41.30;1.00
5457;DHT22;2751;49.802;9.944;2022-08-02T11:30:35;42.10;1.00
5457;DHT22;2751;49.802;9.944;2022-08-02T11:33:02;42.30;1.00
5457;DHT22;2751;49.802;9.944;2022-08-02T11:35:35;42.20;1.00
5457;DHT22;2751;49.802;9.944;2022-08-02T11:38:16;42.90;1.00
5457;DHT22;2751;49.802;9.944;2022-08-02T11:40:44;44.30;1.00
5457;DHT22;2751;49.802;9.944;2022-08-02T11:43:19;44.70;1.00
5457;DHT22;2751;49.802;9.944;2022-08-02T11:45:47;45.80;1.00
5457;DHT22;2751;49.802;9.944;2022-08-02T11:48:14;46.40;1.00
5457;DHT22;2751;49.802;9.944;2022-08-02T11:50:42;46.40;1.00
5457;DHT22;2751;49.802;9.944;2022-08-02T11:53:13;46.20;1.00
5457;DHT22;2751;49.802;9.944;2022-08-02T11:55:41;46.90;1.00
5457;DHT22;2751;49.802;9.944;2022-08-02T11:58:08;45.40;1.00
5457;DHT22;2751;49.802;9.944;2022-08-02T12:00:36;42.80;1.00
5457;DHT22;2751;49.802;9.944;2022-08-02T12:03:05;41.00;1.00
5457;DHT22;2751;49.802;9.944;2022-08-02T12:05:32;40.70;1.00
5457;DHT22;2751;49.802;9.944;2022-08-02T12:08:05;40.80;1.00
5457;DHT22;2751;49.802;9.944;2022-08-02T12:10:33;40.70;1.00
5457;DHT22;2751;49.802;9.944;2022-08-02T12:13:00;41.30;1.00
5457;DHT22;2751;49.802;9.944;2022-08-02T12:15:35;42.40;1.00
5457;DHT22;2751;49.802;9.944;2022-08-02T12:18:08;43.70;1.00
5457;DHT22;2751;49.802;9.944;2022-08-02T12:20:53;44.40;1.00
5457;DHT22;2751;49.802;9.944;2022-08-02T12:23:22;44.80;1.00
5457;DHT22;2751;49.802;9.944;2022-08-02T12:25:59;45.90;1.00
5457;DHT22;2751;49.802;9.944;2022-08-02T12:28:26;46.80;1.00
5457;DHT22;2751;49.802;9.944;2022-08-02T12:30:55;45.30;1.00
5457;DHT22;2751;49.802;9.944;2022-08-02T12:33:24;42.60;1.00
5457;DHT22;2751;49.802;9.944;2022-08-02T12:35:51;42.40;1.00
5457;DHT22;2751;49.802;9.944;2022-08-02T12:38:18;43.10;1.00
5457;DHT22;2751;49.802;9.944;2022-08-02T12:40:47;42.90;1.00
5457;DHT22;2751;49.802;9.944;2022-08-02T12:43:19;43.80;1.00
5457;DHT22;2751;49.802;9.944;2022-08-02T12:45:48;44.60;1.00
5457;DHT22;2751;49.802;9.944;2022-08-02T12:48:16;43.40;1.00
5457;DHT22;2751;49.802;9.944;2022-08-02T12:50:55;43.70;1.00
5457;DHT22;2751;49.802;9.944;2022-08-02T12:53:30;45.40;1.00
5457;DHT22;2751;49.802;9.944;2022-08-02T12:55:59;45.60;1.00
5457;DHT22;2751;49.802;9.944;2022-08-02T12:58:27;45.70;1.00
5457;DHT22;2751;49.802;9.944;2022-08-02T13:00:56;45.90;1.00
5457;DHT22;2751;49.802;9.944;2022-08-02T13:03:24;46.10;1.00
5457;DHT22;2751;49.802;9.944;2022-08-02T13:05:51;47.50;1.00
5457;DHT22;2751;49.802;9.944;2022-08-02T13:08:18;47.20;1.00
5457;DHT22;2751;49.802;9.944;2022-08-02T13:10:45;45.80;1.00
5457;DHT22;2751;49.802;9.944;2022-08-02T13:13:13;45.40;1.00
5457;DHT22;2751;49.802;9.944;2022-08-02T13:15:40;45.20;1.00
5457;DHT22;2751;49.802;9.944;2022-08-02T13:18:08;46.00;1.00
5457;DHT22;2751;49.802;9.944;2022-08-02T13:20:35;45.90;1.00
5457;DHT22;2751;49.802;9.944;2022-08-02T13:23:02;43.30;1.00
5457;DHT22;2751;49.802;9.944;2022-08-02T13:25:29;42.60;1.00
5457;DHT22;2751;49.802;9.944;2022-08-02T13:27:56;43.00;1.00
5457;DHT22;2751;49.802;9.944;2022-08-02T13:30:24;43.60;1.00
5457;DHT22;2751;49.802;9.944;2022-08-02T13:32:51;44.90;1.00
5457;DHT22;2751;49.802;9.944;2022-08-02T13:35:18;44.10;1.00
5457;DHT22;2751;49.802;9.944;2022-08-02T13:37:45;44.00;1.00
5457;DHT22;2751;49.802;9.944;2022-08-02T13:40:12;45.30;1.00
5457;DHT22;2751;49.802;9.944;2022-08-02T13:42:40;46.10;1.00
5457;DHT22;2751;49.802;9.944;2022-08-02T13:45:07;45.10;1.00
5457;DHT22;2751;49.802;9.944;2022-08-02T13:47:37;43.80;1.00
5457;DHT22;2751;49.802;9.944;2022-08-02T13:50:05;43.10;1.00
5457;DHT22;2751;49.802;9.944;2022-08-02T13:52:32;41.30;1.00
5457;DHT22;2751;49.802;9.944;2022-08-02T13:54:59;40.70;1.00
5457;DHT22;2751;49.802;9.944;2022-08-02T13:57:26;41.60;1.00
5457;DHT22;2751;49.802;9.944;2022-08-02T13:59:53;42.70;1.00
5457;DHT22;2751;49.802;9.944;2022-08-02T14:02:20;43.30;1.00
5457;DHT22;2751;49.802;9.944;2022-08-02T14:04:48;43.80;1.00
5457;DHT22;2751;49.802;9.944;2022-08-02T14:07:15;44.70;1.00
5457;DHT22;2751;49.802;9.944;2022-08-02T14:09:42;43.80;1.00
5457;DHT22;2751;49.802;9.944;2022-08-02T14:12:09;42.50;1.00
5457;DHT22;2751;49.802;9.944;2022-08-02T14:14:37;41.30;1.00
5457;DHT22;2751;49.802;9.944;2022-08-02T14:17:04;41.40;1.00
5457;DHT22;2751;49.802;9.944;2022-08-02T14:19:31;41.80;1.00
5457;DHT22;2751;49.802;9.944;2022-08-02T14:22:00;42.00;1.00
5457;DHT22;2751;49.802;9.944;2022-08-02T14:24:27;42.10;1.00
5457;DHT22;2751;49.802;9.944;2022-08-02T14:26:55;42.80;1.00
5457;DHT22;2751;49.802;9.944;2022-08-02T14:29:22;42.30;1.00
5457;DHT22;2751;49.802;9.944;2022-08-02T14:31:49;41.90;1.00
5457;DHT22;2751;49.802;9.944;2022-08-02T14:34:16;42.60;1.00
5457;DHT22;2751;49.802;9.944;2022-08-02T14:36:43;42.20;1.00
5457;DHT22;2751;49.802;9.944;2022-08-02T14:39:11;42.40;1.00
5457;DHT22;2751;49.802;9.944;2022-08-02T14:41:38;41.50;1.00
5457;DHT22;2751;49.802;9.944;2022-08-02T14:44:05;41.30;1.00
5457;DHT22;2751;49.802;9.944;2022-08-02T14:46:35;41.30;1.00
5457;DHT22;2751;49.802;9.944;2022-08-02T14:49:03;40.80;1.00
5457;DHT22;2751;49.802;9.944;2022-08-02T14:51:32;40.80;1.00
5457;DHT22;2751;49.802;9.944;2022-08-02T14:54:00;41.00;1.00
5457;DHT22;2751;49.802;9.944;2022-08-02T14:56:29;40.30;1.00
5457;DHT22;2751;49.802;9.944;2022-08-02T14:58:56;40.70;1.00
5457;DHT22;2751;49.802;9.944;2022-08-02T15:01:23;41.40;1.00
5457;DHT22;2751;49.802;9.944;2022-08-02T15:03:50;40.90;1.00
5457;DHT22;2751;49.802;9.944;2022-08-02T15:06:17;41.80;1.00
5457;DHT22;2751;49.802;9.944;2022-08-02T15:08:44;42.60;1.00
5457;DHT22;2751;49.802;9.944;2022-08-02T15:11:11;42.50;1.00
5457;DHT22;2751;49.802;9.944;2022-08-02T15:13:39;41.20;1.00
5457;DHT22;2751;49.802;9.944;2022-08-02T15:16:07;39.80;1.00
5457;DHT22;2751;49.802;9.944;2022-08-02T15:18:34;39.50;1.00
5457;DHT22;2751;49.802;9.944;2022-08-02T15:21:01;38.70;1.00
5457;DHT22;2751;49.802;9.944;2022-08-02T15:23:28;38.10;99.90
5457;DHT22;2751;49.802;9.944;2022-08-02T15:25:55;39.10;1.00
5457;DHT22;2751;49.802;9.944;2022-08-02T15:28:22;39.20;1.00
5457;DHT22;2751;49.802;9.944;2022-08-02T15:30:51;38.10;99.90
5457;DHT22;2751;49.802;9.944;2022-08-02T15:33:18;37.70;99.90
5457;DHT22;2751;49.802;9.944;2022-08-02T15:35:45;37.50;99.90
5457;DHT22;2751;49.802;9.944;2022-08-02T15:38:12;38.00;99.90
5457;DHT22;2751;49.802;9.944;2022-08-02T15:40:39;38.70;1.00
5457;DHT22;2751;49.802;9.944;2022-08-02T15:43:06;39.50;1.00
5457;DHT22;2751;49.802;9.944;2022-08-02T15:45:33;39.60;1.00
5457;DHT22;2751;49.802;9.944;2022-08-02T15:48:02;39.80;1.00
5457;DHT22;2751;49.802;9.944;2022-08-02T15:50:29;39.90;1.00
5457;DHT22;2751;49.802;9.944;2022-08-02T15:52:56;39.80;1.00
5457;DHT22;2751;49.802;9.944;2022-08-02T15:55:23;39.90;1.00
5457;DHT22;2751;49.802;9.944;2022-08-02T15:57:49;39.90;1.00
5457;DHT22;2751;49.802;9.944;2022-08-02T16:00:16;39.00;1.00
5457;DHT22;2751;49.802;9.944;2022-08-02T16:02:45;39.10;1.00
5457;DHT22;2751;49.802;9.944;2022-08-02T16:05:13;38.20;1.00
5457;DHT22;2751;49.802;9.944;2022-08-02T16:07:42;37.00;99.90
5457;DHT22;2751;49.802;9.944;2022-08-02T16:10:09;36.40;99.90
5457;DHT22;2751;49.802;9.944;2022-08-02T16:12:36;36.60;99.90
5457;DHT22;2751;49.802;9.944;2022-08-02T16:15:04;36.40;99.90
5457;DHT22;2751;49.802;9.944;2022-08-02T16:17:31;35.50;99.90
5457;DHT22;2751;49.802;9.944;2022-08-02T16:19:58;35.40;99.90